createdAt,value
2022-08-11T00:02:01.702Z,13997.53
2022-08-11T00:04:36.226Z,14021.65
2022-08-11T00:07:06.109Z,14028.79
2022-08-11T00:09:39.404Z,14037.27
2022-08-11T00:12:14.506Z,14048.26
2022-08-11T00:14:43.101Z,14053.63
2022-08-11T00:17:14.688Z,14055.11
2022-08-11T00:20:12.447Z,14037.58
2022-08-11T00:22:34.216Z,14016.48
2022-08-11T00:25:11.188Z,14008.82
2022-08-11T00:27:40.657Z,13990.46
2022-08-11T00:30:10.809Z,14041.99
2022-08-11T00:32:39.713Z,14068.10
2022-08-11T00:35:56.230Z,14098.27
2022-08-11T00:38:01.090Z,14096.24
2022-08-11T00:40:51.744Z,14080.99
2022-08-11T00:43:55.546Z,14060.93
2022-08-11T00:46:25.302Z,14074.99
2022-08-11T00:49:10.363Z,14080.00
2022-08-11T00:52:03.981Z,14057.68
2022-08-11T00:54:50.423Z,14094.05
2022-08-11T00:57:36.941Z,14107.09
2022-08-11T01:00:14.820Z,14187.12
2022-08-11T01:02:47.284Z,14237.13
2022-08-11T01:05:35.732Z,14228.46
2022-08-11T01:08:42.571Z,14241.76
2022-08-11T01:11:15.381Z,14249.16
2022-08-11T01:14:00.092Z,14241.93
2022-08-11T01:16:36.174Z,14244.19
2022-08-11T01:19:31.310Z,14247.92
2022-08-11T01:22:19.116Z,14269.85
2022-08-11T01:24:57.585Z,14276.51
2022-08-11T01:27:42.698Z,14272.29
2022-08-11T01:30:46.227Z,14259.60
2022-08-11T01:33:50.566Z,14257.98
2022-08-11T01:36:20.225Z,14271.57
2022-08-11T01:39:19.459Z,14257.44
2022-08-11T01:42:05.335Z,14287.53
2022-08-11T01:44:53.378Z,14289.44
2022-08-11T01:47:22.837Z,14284.15
2022-08-11T01:50:22.419Z,14296.61
2022-08-11T01:53:07.552Z,14318.90
2022-08-11T01:56:01.433Z,14313.74
2022-08-11T01:58:43.280Z,14286.97
2022-08-11T02:01:33.781Z,14263.94
2022-08-11T02:04:09.161Z,14276.54
2022-08-11T02:06:50.265Z,14272.19
2022-08-11T02:09:28.981Z,14254.08
2022-08-11T02:12:27.160Z,14261.12
2022-08-11T02:15:29.216Z,14261.81
2022-08-11T02:18:01.795Z,14248.43
2022-08-11T02:20:48.134Z,14250.28
2022-08-11T02:24:05.254Z,14262.52
2022-08-11T02:26:41.740Z,14273.19
2022-08-11T02:29:43.422Z,14266.69
2022-08-11T02:32:30.029Z,14240.86
2022-08-11T02:35:08.812Z,14257.14
2022-08-11T02:38:05.012Z,14244.43
2022-08-11T02:40:42.984Z,14263.08
2022-08-11T02:43:35.018Z,14254.46
2022-08-11T02:46:22.527Z,14262.52
2022-08-11T02:48:55.182Z,14266.88
2022-08-11T02:52:06.095Z,14265.60
2022-08-11T02:54:44.575Z,14276.69
2022-08-11T02:57:23.546Z,14286.91
2022-08-11T03:00:13.290Z,14275.93
2022-08-11T03:03:00.977Z,14266.08
2022-08-11T03:05:45.229Z,14263.86
2022-08-11T03:08:41.856Z,14245.87
2022-08-11T03:11:52.212Z,14252.60
2022-08-11T03:14:36.027Z,14264.86
2022-08-11T03:17:30.794Z,14263.51
2022-08-11T03:20:06.880Z,14268.05
2022-08-11T03:22:45.026Z,14263.92
2022-08-11T03:25:37.543Z,14274.26
2022-08-11T03:28:26.151Z,14324.08
2022-08-11T03:30:57.136Z,14303.41
2022-08-11T03:33:28.404Z,14317.24
2022-08-11T03:36:15.916Z,14311.75
2022-08-11T03:39:03.824Z,14366.06
2022-08-11T03:41:57.665Z,14323.21
2022-08-11T03:45:15.578Z,14340.78
2022-08-11T03:48:08.006Z,14347.18
2022-08-11T03:51:16.009Z,14377.92
2022-08-11T03:54:20.210Z,14379.63
2022-08-11T03:57:05.457Z,14328.59
2022-08-11T03:59:50.614Z,14358.00
2022-08-11T04:02:29.656Z,14324.82
2022-08-11T04:04:59.034Z,14367.92
2022-08-11T04:07:44.379Z,14343.04
2022-08-11T04:10:35.290Z,14349.23
2022-08-11T04:13:29.855Z,14405.51
2022-08-11T04:16:18.121Z,14372.58
2022-08-11T04:19:05.824Z,14381.71
2022-08-11T04:21:35.551Z,14382.48
2022-08-11T04:24:35.290Z,14394.49
2022-08-11T04:27:24.957Z,14356.48
2022-08-11T04:30:37.655Z,14373.32
2022-08-11T04:33:44.566Z,14347.06
2022-08-11T04:36:52.431Z,14359.55
2022-08-11T04:40:01.421Z,14386.31
2022-08-11T04:43:00.027Z,14377.29
2022-08-11T04:45:40.559Z,14352.27
2022-08-11T04:48:28.879Z,14393.06
2022-08-11T04:51:16.961Z,14395.40
2022-08-11T04:54:26.377Z,14372.83
2022-08-11T04:57:08.657Z,14375.37
2022-08-11T05:00:14.115Z,14372.30
2022-08-11T05:02:59.338Z,14373.77
2022-08-11T05:05:56.271Z,14376.84
2022-08-11T05:08:49.026Z,14374.44
2022-08-11T05:11:49.722Z,14386.01
2022-08-11T05:14:52.630Z,14361.25
2022-08-11T05:17:34.617Z,14329.43
2022-08-11T05:20:01.630Z,14355.34
2022-08-11T05:22:31.079Z,14367.11
2022-08-11T05:25:11.701Z,14349.32
2022-08-11T05:28:05.331Z,14336.64
2022-08-11T05:30:34.517Z,14277.85
2022-08-11T05:33:13.672Z,14286.47
2022-08-11T05:36:01.387Z,14295.21
2022-08-11T05:38:34.796Z,14242.63
2022-08-11T05:41:03.101Z,14229.30
2022-08-11T05:43:30.334Z,14257.24
2022-08-11T05:46:06.259Z,14234.60
2022-08-11T05:48:36.878Z,14230.32
2022-08-11T05:51:10.479Z,14213.04
2022-08-11T05:53:46.783Z,14202.39
2022-08-11T05:56:14.970Z,14198.87
2022-08-11T05:58:46.657Z,14163.16
2022-08-11T06:01:21.363Z,14143.91
2022-08-11T06:03:58.474Z,14143.28
2022-08-11T06:06:28.100Z,14122.91
2022-08-11T06:09:00.414Z,14134.02
2022-08-11T06:11:42.945Z,14138.84
2022-08-11T06:14:13.339Z,14146.88
2022-08-11T06:16:42.762Z,14138.57
2022-08-11T06:19:10.908Z,14151.38
2022-08-11T06:21:38.538Z,14157.32
2022-08-11T06:24:14.177Z,14086.98
2022-08-11T06:27:10.681Z,14126.85
2022-08-11T06:29:47.738Z,14141.68
2022-08-11T06:32:17.026Z,14079.77
2022-08-11T06:35:02.087Z,14057.43
2022-08-11T06:38:06.973Z,14031.12
2022-08-11T06:40:33.872Z,14004.42
2022-08-11T06:43:18.842Z,14018.37
2022-08-11T06:46:08.618Z,13998.07
2022-08-11T06:48:39.197Z,13972.34
2022-08-11T06:51:09.845Z,13948.75
2022-08-11T06:54:03.903Z,13944.26
2022-08-11T06:56:37.221Z,13925.18
2022-08-11T06:59:04.039Z,13833.84
2022-08-11T07:01:43.865Z,13830.13
2022-08-11T07:04:28.913Z,13792.94
2022-08-11T07:07:10.518Z,13732.77
2022-08-11T07:10:13.380Z,13676.25
2022-08-11T07:12:48.230Z,13643.74
2022-08-11T07:15:15.420Z,13637.55
2022-08-11T07:17:46.539Z,13630.80
2022-08-11T07:20:14.136Z,13610.23
2022-08-11T07:22:49.225Z,13569.11
2022-08-11T07:25:17.356Z,13513.51
2022-08-11T07:27:59.999Z,13487.55
2022-08-11T07:30:27.491Z,13477.16
2022-08-11T07:32:59.071Z,13459.19
2022-08-11T07:35:36.278Z,13513.05
2022-08-11T07:38:08.135Z,13526.40
2022-08-11T07:40:36.690Z,13529.27
2022-08-11T07:43:05.381Z,13501.02
2022-08-11T07:45:33.486Z,13467.87
2022-08-11T07:48:01.137Z,13444.70
2022-08-11T07:50:29.707Z,13438.95
2022-08-11T07:53:00.762Z,13421.66
2022-08-11T07:55:50.135Z,13408.42
2022-08-11T07:58:19.802Z,13406.72
2022-08-11T08:00:59.170Z,13436.26
2022-08-11T08:03:30.693Z,13448.10
2022-08-11T08:05:58.566Z,13415.37
2022-08-11T08:08:27.070Z,13409.39
2022-08-11T08:10:56.785Z,13434.46
2022-08-11T08:13:23.618Z,13442.21
2022-08-11T08:15:51.491Z,13429.31
2022-08-11T08:18:25.999Z,13408.71
2022-08-11T08:20:57.854Z,13387.27
2022-08-11T08:23:27.771Z,13319.01
2022-08-11T08:25:54.835Z,13329.09
2022-08-11T08:28:22.185Z,13354.31
2022-08-11T08:30:51.386Z,13342.03
2022-08-11T08:33:22.693Z,13336.87
2022-08-11T08:35:56.449Z,13379.55
2022-08-11T08:38:23.667Z,13355.35
2022-08-11T08:40:56.028Z,13349.49
2022-08-11T08:43:25.061Z,13376.48
2022-08-11T08:45:56.866Z,13386.07
2022-08-11T08:48:28.888Z,13350.32
2022-08-11T08:51:10.992Z,13360.35
2022-08-11T08:53:52.676Z,13366.71
2022-08-11T08:56:29.112Z,13369.20
2022-08-11T08:59:01.086Z,13338.20
2022-08-11T09:01:38.251Z,13281.27
2022-08-11T09:04:11.776Z,13276.23
2022-08-11T09:06:41.683Z,13274.01
2022-08-11T09:09:09.983Z,13293.02
2022-08-11T09:11:40.318Z,13330.67
2022-08-11T09:14:11.495Z,13319.39
2022-08-11T09:16:41.484Z,13335.76
2022-08-11T09:19:09.294Z,13386.08
2022-08-11T09:21:49.008Z,13391.57
2022-08-11T09:24:25.798Z,13414.36
2022-08-11T09:26:53.934Z,13362.34
2022-08-11T09:29:22.390Z,13383.86
2022-08-11T09:31:49.366Z,13405.37
2022-08-11T09:34:16.875Z,13424.88
2022-08-11T09:36:45.383Z,13415.23
2022-08-11T09:39:14.306Z,13441.09
2022-08-11T09:42:01.756Z,13490.61
2022-08-11T09:44:35.403Z,13531.07
2022-08-11T09:47:03.291Z,13570.88
2022-08-11T09:49:32.212Z,13605.53
2022-08-11T09:52:04.980Z,13619.00
2022-08-11T09:54:32.887Z,13656.22
2022-08-11T09:57:04.676Z,13657.30
2022-08-11T09:59:32.076Z,13654.92
2022-08-11T10:02:02.264Z,13662.94
2022-08-11T10:04:48.126Z,13671.45
2022-08-11T10:07:18.803Z,13685.40
2022-08-11T10:10:05.001Z,13669.19
2022-08-11T10:12:41.845Z,13668.96
2022-08-11T10:15:12.657Z,13668.76
2022-08-11T10:17:44.605Z,13672.34
2022-08-11T10:20:12.417Z,13663.11
2022-08-11T10:22:40.478Z,13653.40
2022-08-11T10:25:08.102Z,13648.07
2022-08-11T10:28:16.625Z,13659.42
2022-08-11T10:30:25.717Z,13682.48
2022-08-11T10:33:00.282Z,13672.34
2022-08-11T10:35:29.405Z,13675.67
2022-08-11T10:38:08.688Z,13684.12
2022-08-11T10:40:39.763Z,13683.99
2022-08-11T10:43:08.905Z,13669.49
2022-08-11T10:45:38.271Z,13679.25
2022-08-11T10:48:09.997Z,13696.13
2022-08-11T10:50:39.237Z,13689.39
2022-08-11T10:53:07.908Z,13679.52
2022-08-11T10:55:36.768Z,13671.00
2022-08-11T10:58:04.749Z,13673.26
2022-08-11T11:00:33.733Z,13675.50
2022-08-11T11:03:22.249Z,13674.78
2022-08-11T11:06:12.797Z,13635.10
2022-08-11T11:11:18.585Z,13617.93
2022-08-11T11:13:53.274Z,13612.40
2022-08-11T11:16:24.718Z,13606.56
2022-08-11T11:19:11.311Z,13402.36
2022-08-11T11:21:39.777Z,13377.89
2022-08-11T11:24:35.295Z,13378.26
2022-08-11T11:27:29.385Z,13379.02
2022-08-11T11:30:07.391Z,13399.42
2022-08-11T11:33:01.804Z,13391.32
2022-08-11T11:35:47.043Z,13408.58
2022-08-11T11:38:14.576Z,13422.81
2022-08-11T11:40:42.264Z,13406.29
2022-08-11T11:43:10.943Z,13379.62
2022-08-11T11:45:41.280Z,13392.64
2022-08-11T11:48:09.176Z,13360.85
2022-08-11T11:50:37.618Z,13330.09
2022-08-11T11:53:09.091Z,13335.28
2022-08-11T11:55:37.281Z,13373.98
2022-08-11T11:58:05.924Z,13403.13
2022-08-11T12:00:34.506Z,13333.62
2022-08-11T12:03:09.404Z,13375.59
2022-08-11T12:05:38.383Z,13241.87
2022-08-11T12:08:12.728Z,13256.52
2022-08-11T12:10:49.038Z,13247.37
2022-08-11T12:13:18.273Z,13238.41
2022-08-11T12:16:31.230Z,13238.03
2022-08-11T12:18:35.097Z,13226.25
2022-08-11T12:21:04.042Z,13219.55
2022-08-11T12:23:34.918Z,13204.98
2022-08-11T12:26:25.708Z,13219.58
2022-08-11T12:28:51.083Z,13229.77
2022-08-11T12:31:18.490Z,13220.23
2022-08-11T12:33:45.139Z,13211.23
2022-08-11T12:36:15.444Z,13219.53
2022-08-11T12:38:51.364Z,13230.86
2022-08-11T12:41:22.392Z,13240.21
2022-08-11T12:43:57.204Z,13245.28
2022-08-11T12:46:36.657Z,13242.18
2022-08-11T12:49:15.281Z,13250.89
2022-08-11T12:52:12.036Z,13229.89
2022-08-11T12:54:45.092Z,13252.71
2022-08-11T12:57:43.839Z,13223.73
2022-08-11T13:00:11.738Z,13211.38
2022-08-11T13:02:44.436Z,13213.39
2022-08-11T13:05:16.532Z,13208.65
2022-08-11T13:07:50.566Z,13196.84
2022-08-11T13:10:20.720Z,13189.44
2022-08-11T13:12:47.607Z,13191.22
2022-08-11T13:15:22.301Z,13209.73
2022-08-11T13:17:51.954Z,13221.14
2022-08-11T13:20:22.554Z,13232.75
2022-08-11T13:22:53.121Z,13243.13
2022-08-11T13:25:23.726Z,13229.39
2022-08-11T13:27:55.865Z,13211.62
2022-08-11T13:30:31.227Z,13227.66
2022-08-11T13:33:01.439Z,13225.33
2022-08-11T13:35:33.000Z,13214.03
2022-08-11T13:38:18.355Z,13231.34
2022-08-11T13:40:55.589Z,13244.41
2022-08-11T13:43:45.544Z,13220.76
2022-08-11T13:46:14.409Z,13231.03
2022-08-11T13:48:42.151Z,13240.23
2022-08-11T13:51:11.543Z,13234.44
2022-08-11T13:53:38.927Z,13206.30
2022-08-11T13:56:06.347Z,13200.40
2022-08-11T13:58:39.688Z,13230.32
2022-08-11T14:02:19.794Z,13206.29
2022-08-11T14:04:31.246Z,13213.91
2022-08-11T14:06:56.727Z,13237.83
2022-08-11T14:09:28.789Z,13251.42
2022-08-11T14:12:22.742Z,13219.11
2022-08-11T14:15:01.291Z,13249.58
2022-08-11T14:17:48.739Z,13232.47
2022-08-11T14:20:39.106Z,13236.91
2022-08-11T14:23:13.444Z,13238.34
2022-08-11T14:26:00.087Z,13206.71
2022-08-11T14:28:36.560Z,13223.84
2022-08-11T14:31:09.774Z,13218.08
2022-08-11T14:34:00.200Z,13222.91
2022-08-11T14:36:38.417Z,13236.08
2022-08-11T14:39:13.475Z,13251.62
2022-08-11T14:42:07.570Z,13242.63
2022-08-11T14:44:35.336Z,13227.56
2022-08-11T14:47:04.076Z,13213.45
2022-08-11T14:49:33.705Z,13220.30
2022-08-11T14:52:03.792Z,13242.00
2022-08-11T14:54:32.764Z,13261.14
2022-08-11T14:57:00.132Z,13265.14
2022-08-11T14:59:27.450Z,13250.78
2022-08-11T15:01:54.532Z,13218.26
2022-08-11T15:04:34.545Z,13230.00
2022-08-11T15:07:04.361Z,13231.84
2022-08-11T15:12:34.683Z,13236.29
2022-08-11T15:15:05.073Z,13242.82
2022-08-11T15:17:42.785Z,13240.02
2022-08-11T15:20:17.400Z,13213.57
2022-08-11T15:22:44.142Z,13245.20
2022-08-11T15:25:11.474Z,13229.73
2022-08-11T15:27:41.042Z,13207.46
2022-08-11T15:30:08.637Z,13251.45
2022-08-11T15:32:41.813Z,13248.75
2022-08-11T15:35:11.392Z,13238.65
2022-08-11T15:37:43.967Z,13249.04
2022-08-11T15:40:31.385Z,13261.41
2022-08-11T15:43:29.199Z,13242.17
2022-08-11T15:45:58.559Z,13253.03
2022-08-11T15:48:34.240Z,13254.04
2022-08-11T15:51:35.823Z,13266.29
2022-08-11T15:54:16.387Z,13238.77
2022-08-11T15:56:48.839Z,13231.21
2022-08-11T15:59:43.106Z,13217.72
2022-08-11T16:02:12.501Z,13221.30
2022-08-11T16:04:46.425Z,13211.51
2022-08-11T16:07:16.606Z,13246.74
2022-08-11T16:10:06.595Z,13221.18
2022-08-11T16:12:40.697Z,13238.88
2022-08-11T16:15:10.790Z,13237.28
2022-08-11T16:17:43.749Z,13231.75
2022-08-11T16:20:14.343Z,13228.40
2022-08-11T16:22:57.176Z,13225.96
2022-08-11T16:27:06.893Z,13211.29
2022-08-11T16:28:23.054Z,13209.48
2022-08-11T16:30:53.363Z,13215.87
2022-08-11T16:33:49.611Z,13219.45
2022-08-11T16:36:14.692Z,13214.82
2022-08-11T16:38:43.696Z,13263.65
2022-08-11T16:41:18.596Z,13246.08
2022-08-11T16:43:49.479Z,13256.88
2022-08-11T16:46:19.918Z,13251.87
2022-08-11T16:48:49.371Z,13259.15
2022-08-11T16:51:17.181Z,13237.89
2022-08-11T16:53:54.838Z,13253.51
2022-08-11T16:56:37.371Z,13242.22
2022-08-11T16:59:09.915Z,13251.65
2022-08-11T17:01:39.614Z,13263.17
2022-08-11T17:04:20.378Z,13255.67
2022-08-11T17:06:52.087Z,13267.10
2022-08-11T17:09:24.354Z,13264.67
2022-08-11T17:11:58.021Z,13250.12
2022-08-11T17:14:55.944Z,13250.65
2022-08-11T17:17:32.984Z,13265.41
2022-08-11T17:20:42.524Z,13264.68
2022-08-11T17:22:55.733Z,13286.18
2022-08-11T17:25:26.467Z,13282.29
2022-08-11T17:27:55.631Z,13286.60
2022-08-11T17:30:28.633Z,13267.56
2022-08-11T17:33:00.606Z,13248.70
2022-08-11T17:35:37.540Z,13248.71
2022-08-11T17:38:09.759Z,13238.01
2022-08-11T17:40:49.731Z,13237.42
2022-08-11T17:43:20.147Z,13229.67
2022-08-11T17:45:47.564Z,13229.39
2022-08-11T17:48:16.348Z,13257.55
2022-08-11T17:50:44.441Z,13267.71
2022-08-11T17:53:14.660Z,13258.75
2022-08-11T17:55:52.119Z,13260.43
2022-08-11T17:58:23.178Z,13243.68
2022-08-11T18:00:52.167Z,13266.53
2022-08-11T18:03:22.072Z,13261.06
2022-08-11T18:05:51.173Z,13268.64
2022-08-11T18:08:20.277Z,13307.58
2022-08-11T18:10:48.812Z,13265.74
2022-08-11T18:13:20.158Z,13376.59
2022-08-11T18:15:50.163Z,13349.94
2022-08-11T18:18:22.979Z,13332.71
2022-08-11T18:20:51.188Z,13321.57
2022-08-11T18:23:21.628Z,13380.59
2022-08-11T18:26:11.853Z,13385.91
2022-08-11T18:28:54.281Z,13416.99
2022-08-11T18:31:23.769Z,13418.43
2022-08-11T18:34:06.332Z,13448.40
2022-08-11T18:36:40.469Z,13433.43
2022-08-11T18:39:12.086Z,13441.58
2022-08-11T18:41:41.696Z,13435.71
2022-08-11T18:44:12.627Z,13448.84
2022-08-11T18:46:44.937Z,13438.77
2022-08-11T18:49:20.681Z,13450.44
2022-08-11T18:51:53.623Z,13468.45
2022-08-11T18:54:24.562Z,13460.63
2022-08-11T18:56:52.912Z,13447.36
2022-08-11T18:59:25.548Z,13438.05
2022-08-11T19:01:56.431Z,13478.27
2022-08-11T19:04:29.835Z,13498.32
2022-08-11T19:06:59.861Z,13521.64
2022-08-11T19:09:30.068Z,13518.55
2022-08-11T19:12:00.407Z,13497.66
2022-08-11T19:14:30.841Z,13509.08
2022-08-11T19:17:00.929Z,13512.45
2022-08-11T19:19:31.879Z,13516.33
2022-08-11T19:22:02.382Z,13539.13
2022-08-11T19:24:32.531Z,13560.74
2022-08-11T19:27:00.968Z,13563.35
2022-08-11T19:30:07.786Z,13582.34
2022-08-11T19:32:19.334Z,13581.24
2022-08-11T19:34:48.398Z,13607.73
2022-08-11T19:37:18.615Z,13600.77
2022-08-11T19:39:49.891Z,13604.84
2022-08-11T19:42:18.583Z,13617.98
2022-08-11T19:44:46.882Z,13609.28
2022-08-11T19:47:18.700Z,13604.52
2022-08-11T19:49:48.498Z,13607.75
2022-08-11T19:52:16.146Z,13603.91
2022-08-11T19:54:45.034Z,13619.97
2022-08-11T19:57:12.739Z,13633.16
2022-08-11T19:59:40.614Z,13638.36
2022-08-11T20:02:14.137Z,13638.73
2022-08-11T20:04:42.733Z,13647.01
2022-08-11T20:07:14.628Z,13659.37
2022-08-11T20:10:04.931Z,13685.26
2022-08-11T20:12:32.505Z,13702.40
2022-08-11T20:15:00.756Z,13702.80
2022-08-11T20:17:31.716Z,13657.00
2022-08-11T20:20:03.724Z,13699.09
2022-08-11T20:22:32.990Z,13707.00
2022-08-11T20:25:01.873Z,13726.06
2022-08-11T20:27:28.861Z,13747.89
2022-08-11T20:29:58.574Z,13743.80
2022-08-11T20:32:25.814Z,13753.48
2022-08-11T20:34:55.346Z,13748.23
2022-08-11T20:37:24.948Z,13738.98
2022-08-11T20:39:55.823Z,13757.22
2022-08-11T20:42:28.477Z,13757.41
2022-08-11T20:44:59.873Z,13786.01
2022-08-11T20:47:28.712Z,13773.33
2022-08-11T20:50:02.933Z,13773.04
2022-08-11T20:52:31.595Z,13761.68
2022-08-11T20:55:00.989Z,13765.66
2022-08-11T20:57:50.455Z,13768.03
2022-08-11T21:00:19.308Z,13778.92
2022-08-11T21:03:05.976Z,13779.13
2022-08-11T21:06:09.100Z,13778.65
2022-08-11T21:08:35.973Z,13751.27
2022-08-11T21:11:02.850Z,13793.75
2022-08-11T21:13:39.082Z,13789.62
2022-08-11T21:16:08.183Z,13798.50
2022-08-11T21:18:36.771Z,13783.66
2022-08-11T21:21:09.301Z,13809.00
2022-08-11T21:23:45.167Z,13814.02
2022-08-11T21:26:18.914Z,13821.85
2022-08-11T21:28:47.907Z,13834.11
2022-08-11T21:31:18.082Z,13803.51
2022-08-11T21:33:47.594Z,13797.07
2022-08-11T21:36:15.490Z,13796.15
2022-08-11T21:38:42.788Z,13808.52
2022-08-11T21:41:12.560Z,13812.30
2022-08-11T21:43:42.443Z,13837.95
2022-08-11T21:46:10.897Z,13819.29
2022-08-11T21:48:41.108Z,13837.04
2022-08-11T21:51:07.772Z,13829.10
2022-08-11T21:53:35.799Z,13851.49
2022-08-11T21:56:03.849Z,13832.84
2022-08-11T21:58:31.180Z,13833.30
2022-08-11T22:00:58.625Z,13824.44
2022-08-11T22:03:25.662Z,13844.95
2022-08-11T22:05:56.003Z,13852.26
2022-08-11T22:08:22.786Z,13834.71
2022-08-11T22:10:50.131Z,13811.83
2022-08-11T22:13:16.846Z,13836.66
2022-08-11T22:15:43.720Z,13848.80
2022-08-11T22:18:10.465Z,13873.32
2022-08-11T22:20:40.180Z,13836.04
2022-08-11T22:23:08.440Z,13857.88
2022-08-11T22:25:38.823Z,13861.55
2022-08-11T22:28:05.837Z,13840.41
2022-08-11T22:30:33.558Z,13834.44
2022-08-11T22:33:02.710Z,13839.85
2022-08-11T22:35:33.014Z,13834.69
2022-08-11T22:38:01.963Z,13821.96
2022-08-11T22:40:28.856Z,13820.43
2022-08-11T22:42:55.708Z,13850.91
2022-08-11T22:45:22.628Z,13847.15
2022-08-11T22:47:51.076Z,13817.01
2022-08-11T22:50:18.413Z,13841.40
2022-08-11T22:52:48.416Z,13832.46
2022-08-11T22:55:16.118Z,13826.33
2022-08-11T22:58:00.546Z,13838.32
2022-08-11T23:00:30.538Z,13860.96
2022-08-11T23:02:58.351Z,13852.85
2022-08-11T23:05:26.017Z,13849.76
2022-08-11T23:07:54.952Z,13820.85
2022-08-11T23:10:22.927Z,13781.12
2022-08-11T23:12:50.293Z,13765.62
2022-08-11T23:15:17.567Z,13772.88
2022-08-11T23:17:44.848Z,13768.83
2022-08-11T23:20:29.792Z,13821.87
2022-08-11T23:23:02.208Z,13841.98
2022-08-11T23:25:31.234Z,13828.08
2022-08-11T23:28:01.284Z,13844.05
2022-08-11T23:30:29.280Z,13858.59
2022-08-11T23:33:01.459Z,13862.59
2022-08-11T23:35:39.210Z,13845.43
2022-08-11T23:38:18.007Z,13855.37
2022-08-11T23:40:45.775Z,13853.69
2022-08-11T23:43:24.208Z,13817.34
2022-08-11T23:45:51.095Z,13804.43
2022-08-11T23:48:19.720Z,13855.84
2022-08-11T23:50:48.125Z,13869.26
2022-08-11T23:53:15.205Z,13857.37
2022-08-11T23:55:41.986Z,13836.62
2022-08-11T23:58:11.328Z,13859.53
